Flight Track Log - Related Links

Times and Time Zones

All times are in EDT time to prevent confusion due to time zone crossing. See the N885FT flight status page for this flight to view local times or setup timezone preferences in your user account.

Time Position Orientation Groundspeed Altitude Reporting Facility
EDT Latitude Longitude Course Direction KTS MPH feet Rate Location/Type
Wed 07:52:22 PM 28.1000 -80.6333 360° North 85 98 800  Level Orlando TRACON
Wed 07:53:04 PM 28.1167 -80.6333 360° North 113 130 1,400 866 Climbing Orlando TRACON
Wed 07:53:59 PM 28.1333 -80.6667 300° West 121 139 2,200 783 Climbing Orlando TRACON
Wed 07:54:59 PM 28.1667 -80.7000 319° Northwest 129 148 2,900 714 Climbing Orlando TRACON
Wed 07:56:05 PM 28.1833 -80.7333 300° West 136 157 3,700 571 Climbing Orlando TRACON
Wed 07:57:05 PM 28.2167 -80.7667 319° Northwest 144 166 4,100 200 Climbing Orlando TRACON
Wed 07:58:05 PM 28.2500 -80.8000 319° Northwest 177 204 4,100 -50 Level Orlando TRACON
Wed 07:59:05 PM 28.2833 -80.8333 319° Northwest 174 200 4,000 -53 Descending Orlando TRACON
Wed 07:59:59 PM 28.3000 -80.8833 291° West 173 199 4,000  Level Orlando TRACON
Wed 08:01:05 PM 28.3333 -80.9333 307° West 175 201 4,000  Level Orlando TRACON
Wed 08:01:59 PM 28.3500 -80.9833 291° West 175 201 4,000 53 Level Orlando TRACON
Wed 08:02:59 PM 28.3667 -81.0333 291° West 174 200 4,100 48 Climbing Orlando TRACON
Wed 08:04:05 PM 28.4000 -81.0833 307° West 174 200 4,100  Level Orlando TRACON
Wed 08:05:05 PM 28.4167 -81.1333 291° West 172 198 4,100  Level Orlando TRACON
Wed 08:06:05 PM 28.4333 -81.1833 291° West 169 194 4,100  Level Orlando TRACON
Wed 08:07:05 PM 28.4333 -81.2333 270° West 172 198 4,100 200 Level Orlando TRACON
Wed 08:08:05 PM 28.4333 -81.2833 270° West 147 169 4,500 417 Climbing Orlando TRACON
Wed 08:09:00 PM 28.4500 -81.3167 300° West 142 163 4,900 500 Climbing Orlando TRACON
Wed 08:10:05 PM 28.4500 -81.3667 270° West 140 161 5,500 480 Climbing Orlando TRACON
Wed 08:11:05 PM 28.4500 -81.4167 270° West 148 170 5,900 250 Climbing Orlando TRACON
Wed 08:12:05 PM 28.4667 -81.4667 291° West 161 185 6,000 99 Climbing Orlando TRACON
Wed 08:13:06 PM 28.4833 -81.5167 291° West 171 197 6,100  Climbing Orlando TRACON
Wed 08:14:06 PM 28.5000 -81.5667 291° West 175 201 6,000 -45 Descending Orlando TRACON
Wed 08:15:18 PM 28.5333 -81.6167 307° West 176 203 6,000  Level Orlando TRACON
Wed 08:16:18 PM 28.5500 -81.6667 291° West 173 199 6,000  Level Orlando TRACON
Wed 08:17:12 PM 28.5833 -81.7000 319° Northwest 183 211 6,000 39 Level Orlando TRACON
Wed 08:18:50 PM 28.6458 -81.7617 319° Northwest 171 197 6,100  Climbing Jacksonville Center
Wed 08:19:51 PM 28.6817 -81.7944 321° Northwest 170 196 6,000 -49 Descending Jacksonville Center
Wed 08:20:52 PM 28.7194 -81.8272 323° Northwest 171 197 6,000  Level Jacksonville Center
Wed 08:21:41 PM 28.7489 -81.8578 318° Northwest 173 199 6,000  Level Jacksonville Center
Wed 08:22:41 PM 28.7867 -81.8906 323° Northwest 168 193 6,000  Level Jacksonville Center
Wed 08:23:42 PM 28.8267 -81.9233 324° Northwest 168 193 6,000  Level Jacksonville Center
Wed 08:24:43 PM 28.8622 -81.9536 323° Northwest 168 193 6,000  Level Jacksonville Center
Wed 08:25:43 PM 28.9064 -81.9794 333° Northwest 172 198 6,000 -99 Level Jacksonville Center
Wed 08:26:44 PM 28.9503 -81.9933 345° North 169 194 5,800 -295 Descending Jacksonville Center
Wed 08:27:45 PM 28.9983 -82.0094 344° North 182 209 5,400 -443 Descending Jacksonville Center
Wed 08:28:46 PM 29.0486 -82.0256 344° North 181 208 4,900 -541 Descending Jacksonville Center
Wed 08:29:47 PM 29.0989 -82.0394 346° North 180 207 4,300 -639 Descending Jacksonville Center
Wed 08:30:48 PM 29.1447 -82.0606 338° Northwest 182 209 3,600 -590 Descending Jacksonville Center
Wed 08:31:49 PM 29.1950 -82.0742 347° North 179 206 3,100 -248 Descending Jacksonville Center
Wed 08:32:49 PM 29.2389 -82.0906 342° North 167 192 3,100 -50 Level Jacksonville Center
Wed 08:33:50 PM 29.2828 -82.1044 345° North 163 188 3,000 -443 Descending Jacksonville Center
Wed 08:34:51 PM 29.3269 -82.1231 340° North 163 188 2,200 -375 Descending Jacksonville Center
Wed 08:35:58 PM 29.3644 -82.1397 339° North 123 142 2,200  Level Jacksonville Center
Wed 08:36:59 PM 29.3625 -82.1800 267° West 117 135 2,200 -51 Level Jacksonville Center
Wed 08:37:55 PM 29.3628 -82.2133 271° West 122 140 2,100 -246 Descending Jacksonville Center
Wed 08:39:01 PM 29.3317 -82.2256 199° South 103 119 1,700 -142 Descending Jacksonville Center
Wed 08:40:02 PM 29.3044 -82.2258 181° South 91 105 1,800 98 Climbing Jacksonville Center
Wed 08:41:03 PM 29.2753 -82.2283 184° South 107 123 1,900 -148 Climbing Jacksonville Center
Wed 08:42:04 PM 29.2522 -82.2286 181° South 87 100 1,500 -393 Descending Jacksonville Center
Wed 08:43:05 PM 29.2231 -82.2239 172° South 94 108 1,100 -443 Descending Jacksonville Center
Wed 08:44:06 PM 29.1981 -82.2264 185° South 95 109 600 -375 Descending Jacksonville Center
Wed 08:45:13 PM 29.1731 -82.2267 181° South 93 107 300 58 Descending Jacksonville Center
Wed 08:45:49 PM 29.1561 -82.2267 180° South 109 125 700 857 Climbing Jacksonville Center
Wed 08:46:02 PM 29.1519 -82.2292 208° Southwest 99 114 1,000 892 Climbing Jacksonville Center
Wed 08:47:03 PM 29.1333 -82.2128 142° Southeast 86 99 1,800 545 Climbing Jacksonville Center
Wed 08:48:03 PM 29.1267 -82.1794 103° East 114 131 2,100 300 Climbing Jacksonville Center

Login

Don't have an account? Register now (free) for customized features, flight alerts, and more!